createdAt,value
2022-09-29T00:02:34.730Z,59.49
2022-09-29T00:08:00.818Z,59.83
2022-09-29T00:13:38.328Z,60.09
2022-09-29T00:18:44.692Z,60.17
2022-09-29T00:23:53.446Z,60.87
2022-09-29T00:29:08.207Z,61.27
2022-09-29T00:34:12.630Z,60.88
2022-09-29T00:39:17.422Z,60.56
2022-09-29T00:45:00.860Z,61.64
2022-09-29T00:50:31.495Z,60.81
2022-09-29T00:55:45.998Z,59.96
2022-09-29T01:11:34.512Z,58.89
2022-09-29T01:16:47.702Z,58.93
2022-09-29T01:22:28.242Z,59.47
2022-09-29T01:28:06.700Z,59.70
2022-09-29T01:33:52.726Z,58.97
2022-09-29T01:39:52.280Z,59.29
2022-09-29T01:45:42.095Z,58.83
2022-09-29T01:51:00.207Z,58.45
2022-09-29T01:56:19.251Z,58.29
2022-09-29T02:01:43.787Z,58.42
2022-09-29T02:07:09.806Z,59.02
2022-09-29T02:12:26.258Z,59.11
2022-09-29T02:17:39.495Z,59.30
2022-09-29T02:22:52.244Z,59.08
2022-09-29T02:28:03.293Z,59.07
2022-09-29T02:33:07.505Z,59.64
2022-09-29T02:38:28.121Z,60.26
2022-09-29T02:44:16.446Z,62.04
2022-09-29T02:49:44.168Z,60.99
2022-09-29T02:55:10.896Z,61.90
2022-09-29T03:06:55.467Z,60.13
2022-09-29T03:11:58.600Z,60.22
2022-09-29T03:17:00.540Z,60.55
2022-09-29T03:22:03.978Z,61.16
2022-09-29T03:27:06.549Z,61.26
2022-09-29T03:32:08.549Z,61.09
2022-09-29T03:37:10.452Z,61.04
2022-09-29T03:42:12.468Z,60.78
2022-09-29T03:47:14.513Z,60.97
2022-09-29T03:52:16.493Z,60.94
2022-09-29T03:57:18.655Z,61.03
2022-09-29T04:02:21.136Z,60.29
2022-09-29T04:07:23.151Z,59.26
2022-09-29T04:37:21.722Z,52.33
2022-09-29T04:42:24.018Z,51.85
2022-09-29T04:47:27.157Z,51.66
2022-09-29T04:52:29.496Z,51.19
2022-09-29T04:57:37.207Z,50.77
2022-09-29T05:02:41.399Z,50.84
2022-09-29T05:07:44.774Z,50.30
2022-09-29T05:12:51.104Z,49.32
2022-09-29T05:17:53.421Z,49.82
2022-09-29T05:22:57.642Z,49.43
2022-09-29T05:28:02.169Z,49.52
2022-09-29T05:33:08.710Z,49.46
2022-09-29T05:38:13.331Z,49.44
2022-09-29T05:43:24.109Z,49.53
2022-09-29T05:48:27.051Z,49.71
2022-09-29T05:53:32.432Z,49.69
2022-09-29T05:58:34.740Z,49.48
2022-09-29T06:03:42.084Z,49.57
2022-09-29T06:08:45.013Z,49.75
2022-09-29T06:13:49.503Z,49.61
2022-09-29T06:18:51.914Z,49.48
2022-09-29T06:23:55.310Z,49.23
2022-09-29T06:28:59.017Z,49.29
2022-09-29T06:34:06.547Z,49.44
2022-09-29T06:39:18.516Z,49.23
2022-09-29T06:44:22.069Z,49.06
2022-09-29T06:49:27.946Z,49.49
2022-09-29T06:54:31.608Z,49.37
2022-09-29T06:59:35.866Z,49.36
2022-09-29T07:04:41.161Z,49.27
2022-09-29T07:09:43.411Z,49.24
2022-09-29T07:14:48.112Z,49.13
2022-09-29T07:19:50.138Z,49.15
2022-09-29T07:24:54.137Z,49.40
2022-09-29T07:30:04.090Z,49.38
2022-09-29T07:35:10.111Z,49.59
2022-09-29T07:40:14.097Z,49.89
2022-09-29T07:45:17.700Z,49.90
2022-09-29T07:50:19.609Z,49.70
2022-09-29T07:55:24.059Z,49.58
2022-09-29T08:00:26.193Z,49.35
2022-09-29T08:05:29.364Z,49.20
2022-09-29T08:10:36.111Z,49.13
2022-09-29T08:15:43.175Z,48.56
2022-09-29T08:20:47.755Z,48.06
2022-09-29T08:25:59.813Z,47.44
2022-09-29T08:31:08.336Z,46.69
2022-09-29T08:36:16.602Z,47.09
2022-09-29T08:41:49.314Z,46.27
2022-09-29T08:47:10.014Z,46.53
2022-09-29T08:52:18.578Z,46.71
2022-09-29T08:57:21.100Z,46.66
2022-09-29T09:02:56.712Z,45.59
2022-09-29T09:08:40.223Z,45.37
2022-09-29T09:13:58.298Z,45.79
2022-09-29T09:19:36.034Z,44.90
2022-09-29T09:25:06.083Z,45.66
2022-09-29T09:30:18.801Z,45.84
2022-09-29T09:35:55.211Z,45.73
2022-09-29T09:41:03.107Z,45.93
2022-09-29T09:46:37.244Z,44.56
2022-09-29T09:57:35.600Z,44.00
2022-09-29T10:03:05.539Z,43.30
2022-09-29T10:08:12.607Z,43.81
2022-09-29T10:13:16.097Z,44.01
2022-09-29T10:18:23.103Z,43.71
2022-09-29T10:23:34.789Z,43.73
2022-09-29T10:28:41.193Z,43.47
2022-09-29T10:33:57.104Z,43.66
2022-09-29T10:39:03.271Z,44.09
2022-09-29T10:44:21.720Z,42.57
2022-09-29T10:49:28.238Z,43.22
2022-09-29T10:54:35.562Z,43.09
2022-09-29T10:59:49.904Z,41.95
2022-09-29T11:04:56.754Z,42.68
2022-09-29T11:10:23.708Z,41.85
2022-09-29T11:15:28.913Z,41.23
2022-09-29T11:20:35.367Z,40.65
2022-09-29T11:26:16.690Z,38.62
2022-09-29T11:31:38.776Z,38.05
2022-09-29T11:36:54.732Z,38.28
2022-09-29T11:42:42.083Z,35.85
2022-09-29T11:47:55.374Z,36.33
2022-09-29T11:53:27.700Z,35.81
2022-09-29T11:59:06.924Z,36.45
2022-09-29T12:04:28.164Z,38.14
2022-09-29T12:09:47.515Z,37.61
2022-09-29T12:15:12.367Z,36.01
2022-09-29T12:20:33.988Z,36.76
2022-09-29T12:25:39.322Z,38.05
2022-09-29T12:30:54.081Z,39.68
2022-09-29T12:36:32.209Z,38.86
2022-09-29T12:41:38.552Z,40.22
2022-09-29T12:46:56.935Z,40.00
2022-09-29T12:52:07.508Z,40.18
2022-09-29T12:57:17.938Z,40.83
2022-09-29T13:02:38.307Z,41.20
2022-09-29T13:08:05.328Z,40.07
2022-09-29T13:13:38.222Z,40.90
2022-09-29T13:19:29.652Z,41.56
2022-09-29T13:24:42.904Z,41.66
2022-09-29T13:30:00.773Z,41.22
2022-09-29T13:35:04.130Z,41.68
2022-09-29T13:40:11.436Z,42.38
2022-09-29T13:45:17.009Z,43.27
2022-09-29T13:50:48.238Z,43.68
2022-09-29T13:55:57.573Z,43.25
2022-09-29T14:01:10.695Z,44.38
2022-09-29T14:06:53.482Z,43.78
2022-09-29T14:11:51.775Z,44.45
2022-09-29T14:17:03.010Z,44.88
2022-09-29T14:22:26.641Z,45.27
2022-09-29T14:27:57.336Z,45.16
2022-09-29T14:33:12.519Z,45.67
2022-09-29T14:38:22.196Z,45.23
2022-09-29T14:43:50.996Z,45.72
2022-09-29T14:49:26.755Z,45.90
2022-09-29T14:54:47.532Z,46.04
2022-09-29T15:00:20.610Z,46.98
2022-09-29T15:05:30.915Z,47.72
2022-09-29T15:10:43.179Z,47.34
2022-09-29T15:15:48.530Z,47.58
2022-09-29T15:21:16.699Z,47.89
2022-09-29T15:26:24.146Z,47.48
2022-09-29T15:31:31.283Z,48.11
2022-09-29T15:36:38.257Z,49.02
2022-09-29T15:41:45.595Z,48.68
2022-09-29T15:46:50.012Z,48.32
2022-09-29T15:52:07.775Z,48.09
2022-09-29T15:58:05.843Z,47.10
2022-09-29T16:03:28.494Z,47.07
2022-09-29T16:08:33.890Z,47.52
2022-09-29T16:13:41.893Z,47.33
2022-09-29T16:18:48.706Z,46.49
2022-09-29T16:24:02.454Z,46.53
2022-09-29T16:29:19.332Z,46.49
2022-09-29T16:34:30.369Z,46.21
2022-09-29T16:39:47.917Z,45.14
2022-09-29T16:44:53.345Z,45.40
2022-09-29T16:50:14.458Z,45.42
2022-09-29T16:55:28.665Z,45.92
2022-09-29T17:00:30.993Z,45.81
2022-09-29T17:05:49.718Z,43.63
2022-09-29T17:10:53.749Z,42.82
2022-09-29T17:15:55.723Z,41.96
2022-09-29T17:20:57.778Z,40.56
2022-09-29T17:26:19.647Z,40.21
2022-09-29T17:31:21.992Z,40.05
2022-09-29T17:36:24.256Z,39.08
2022-09-29T17:41:26.249Z,39.42
2022-09-29T17:46:28.337Z,39.31
2022-09-29T17:51:30.336Z,40.65
2022-09-29T17:56:39.243Z,45.11
2022-09-29T18:01:41.405Z,49.05
2022-09-29T18:06:45.614Z,53.28
2022-09-29T18:11:48.316Z,54.36
2022-09-29T18:16:55.276Z,57.63
2022-09-29T18:21:58.518Z,56.11
2022-09-29T18:27:03.554Z,56.31
2022-09-29T18:32:10.148Z,56.80
2022-09-29T18:37:12.162Z,56.49
2022-09-29T18:42:14.306Z,55.78
2022-09-29T18:47:17.065Z,57.32
2022-09-29T18:52:19.532Z,58.70
2022-09-29T18:57:25.013Z,59.90
2022-09-29T19:02:35.004Z,60.54
2022-09-29T19:07:37.048Z,61.44
2022-09-29T19:12:38.962Z,61.36
2022-09-29T19:17:44.255Z,61.50
2022-09-29T19:22:52.922Z,62.04
2022-09-29T19:27:57.284Z,63.11
2022-09-29T19:33:03.038Z,63.34
2022-09-29T19:38:09.347Z,61.67
2022-09-29T19:43:13.429Z,61.61
2022-09-29T19:48:17.893Z,61.39
2022-09-29T19:53:21.104Z,60.79
2022-09-29T19:58:24.739Z,60.51
2022-09-29T20:03:42.983Z,60.39
2022-09-29T20:08:45.015Z,59.67
2022-09-29T20:13:51.128Z,59.86
2022-09-29T20:18:58.203Z,59.44
2022-09-29T20:24:05.193Z,60.09
2022-09-29T20:29:07.357Z,59.06
2022-09-29T20:34:11.984Z,59.25
2022-09-29T20:39:17.345Z,59.32
2022-09-29T20:44:23.805Z,59.23
2022-09-29T20:49:27.189Z,59.25
2022-09-29T20:54:33.229Z,58.66
2022-09-29T20:59:46.569Z,58.79
2022-09-29T21:04:48.779Z,58.12
2022-09-29T21:09:51.011Z,58.24
2022-09-29T21:14:56.294Z,58.15
2022-09-29T21:20:03.204Z,58.28
2022-09-29T21:25:06.596Z,57.93
2022-09-29T21:30:10.043Z,57.55
2022-09-29T21:35:12.434Z,57.10
2022-09-29T21:40:14.508Z,56.78
2022-09-29T21:45:16.860Z,57.08
2022-09-29T21:50:28.677Z,57.68
2022-09-29T21:55:30.610Z,57.80
2022-09-29T22:00:32.662Z,57.83
2022-09-29T22:05:35.203Z,58.03
2022-09-29T22:10:39.649Z,57.91
2022-09-29T22:15:42.424Z,57.97
2022-09-29T22:20:44.335Z,57.71
2022-09-29T22:25:46.424Z,57.71
2022-09-29T22:30:48.716Z,57.41
2022-09-29T22:35:56.768Z,57.83
2022-09-29T22:41:02.702Z,57.60
2022-09-29T22:46:06.780Z,57.12
2022-09-29T22:51:09.029Z,57.19
2022-09-29T22:56:14.396Z,57.51
2022-09-29T23:01:23.072Z,57.53
2022-09-29T23:06:25.305Z,57.62
2022-09-29T23:11:27.253Z,57.69
2022-09-29T23:16:29.390Z,57.97
2022-09-29T23:21:33.582Z,57.82
2022-09-29T23:26:38.915Z,58.03
2022-09-29T23:31:52.724Z,58.10
2022-09-29T23:36:54.967Z,58.29
2022-09-29T23:42:06.524Z,58.17
2022-09-29T23:47:14.123Z,58.58
2022-09-29T23:52:15.999Z,58.32
2022-09-29T23:57:17.737Z,59.45
